Time;durP1;ratioP1;P1;durP2;ratioP2;P2;SDS_P1;SDS_P2;PMS_P1;PMS_P2;Temp;Humidity;BMP_temperature;BMP_pressure;BME280_temperature;BME280_humidity;BME280_pressure;Samples;Min_cycle;Max_cycle;Signal;HPM_P1;HPM_P2
2022/08/21 00:01:15;;;;;;;14.70;5.70;;;;;;;19.42;100.00;99931.02;106481;1271;24341;-59
2022/08/21 00:03:47;;;;;;;14.90;5.30;;;;;;;19.41;100.00;99929.63;106441;1268;25506;-61
2022/08/21 00:06:19;;;;;;;13.80;5.30;;;;;;;19.40;100.00;99921.84;106457;1270;26462;-59
2022/08/21 00:08:51;;;;;;;12.00;4.20;;;;;;;19.35;100.00;99914.42;106294;1270;23025;-60
2022/08/21 00:11:23;;;;;;;10.60;4.90;;;;;;;19.31;100.00;99903.82;106444;1271;22549;-61
2022/08/21 00:13:55;;;;;;;11.90;4.90;;;;;;;19.28;100.00;99907.18;106387;1270;25326;-60
2022/08/21 00:16:26;;;;;;;10.00;4.30;;;;;;;19.26;100.00;99909.48;106291;1270;24370;-60
2022/08/21 00:18:59;;;;;;;10.60;4.90;;;;;;;19.25;100.00;99913.32;106330;1270;22593;-59
2022/08/21 00:21:30;;;;;;;11.10;5.30;;;;;;;19.24;100.00;99915.42;106406;1270;22558;-59
2022/08/21 00:24:02;;;;;;;12.30;5.20;;;;;;;19.21;100.00;99915.31;106234;1270;22883;-60
2022/08/21 00:26:34;;;;;;;13.40;5.90;;;;;;;19.20;100.00;99906.40;106159;1270;25351;-60
2022/08/21 00:29:06;;;;;;;14.00;5.80;;;;;;;19.17;100.00;99905.53;106095;1271;22596;-61
2022/08/21 00:31:39;;;;;;;16.30;6.00;;;;;;;19.13;100.00;99904.74;105893;1270;22595;-62
2022/08/21 00:34:11;;;;;;;16.40;6.20;;;;;;;19.09;100.00;99902.96;106065;1269;22678;-62
2022/08/21 00:36:43;;;;;;;13.60;6.60;;;;;;;19.07;100.00;99906.73;105926;1270;26079;-61
2022/08/21 00:39:15;;;;;;;17.50;7.40;;;;;;;19.05;100.00;99908.35;106147;1270;25479;-61
2022/08/21 00:41:46;;;;;;;14.00;6.40;;;;;;;19.04;100.00;99913.73;106305;1270;22613;-62
2022/08/21 00:44:18;;;;;;;13.30;6.20;;;;;;;19.03;100.00;99909.27;105944;1270;22760;-62
2022/08/21 00:46:50;;;;;;;13.70;6.40;;;;;;;19.02;100.00;99906.50;106076;1270;25313;-60
2022/08/21 00:49:21;;;;;;;15.90;6.40;;;;;;;19.02;100.00;99907.70;106184;1270;24228;-59
2022/08/21 00:51:56;;;;;;;14.10;6.00;;;;;;;19.01;100.00;99911.12;106439;1270;22581;-58
2022/08/21 00:54:30;;;;;;;13.60;6.80;;;;;;;18.98;100.00;99911.58;106556;1270;24254;-59
2022/08/21 00:57:08;;;;;;;13.90;6.60;;;;;;;18.97;100.00;99911.41;106456;1271;22720;-61
2022/08/21 00:59:41;;;;;;;14.50;6.20;;;;;;;18.95;100.00;99907.54;106592;1271;24236;-60
2022/08/21 01:02:13;;;;;;;11.20;5.80;;;;;;;18.92;100.00;99903.08;106559;1271;25972;-60
2022/08/21 01:04:46;;;;;;;16.00;6.50;;;;;;;18.88;100.00;99903.41;106531;1270;22699;-59
2022/08/21 01:07:18;;;;;;;13.40;5.80;;;;;;;18.86;100.00;99899.59;106337;1270;25653;-61
2022/08/21 01:09:51;;;;;;;11.90;5.30;;;;;;;18.83;100.00;99899.02;106228;1270;25579;-62
2022/08/21 01:12:23;;;;;;;15.40;6.60;;;;;;;18.81;100.00;99897.67;106203;1270;25550;-61
2022/08/21 01:14:56;;;;;;;12.80;6.00;;;;;;;18.79;100.00;99897.73;106066;1270;22692;-61
2022/08/21 01:17:28;;;;;;;13.50;5.50;;;;;;;18.78;100.00;99892.30;106130;1271;22541;-60
2022/08/21 01:20:03;;;;;;;11.50;5.30;;;;;;;18.77;100.00;99883.38;106314;1270;25442;-61
2022/08/21 01:22:35;;;;;;;12.90;4.90;;;;;;;18.76;100.00;99881.17;106229;1270;22544;-62
2022/08/21 01:25:08;;;;;;;11.10;4.60;;;;;;;18.76;100.00;99875.78;106279;1270;24260;-60
2022/08/21 01:27:41;;;;;;;10.10;4.80;;;;;;;18.74;100.00;99866.81;106332;1271;22699;-60
2022/08/21 01:30:17;;;;;;;13.20;4.60;;;;;;;18.71;100.00;99858.05;106085;1270;22698;-61
2022/08/21 01:32:50;;;;;;;11.30;4.50;;;;;;;18.69;100.00;99837.56;106027;1270;25349;-61
2022/08/21 01:35:23;;;;;;;11.60;4.50;;;;;;;18.66;100.00;99824.94;105884;1270;22599;-60
2022/08/21 01:37:56;;;;;;;11.70;3.90;;;;;;;18.63;100.00;99825.87;105842;1270;22696;-61
2022/08/21 01:40:27;;;;;;;10.20;3.70;;;;;;;18.59;100.00;99827.43;106148;1270;22642;-61
2022/08/21 01:42:59;;;;;;;11.50;3.80;;;;;;;18.55;100.00;99828.33;106159;1270;24254;-60
2022/08/21 01:45:31;;;;;;;11.00;3.90;;;;;;;18.51;100.00;99825.98;106369;1271;22526;-59
2022/08/21 01:48:04;;;;;;;9.30;3.70;;;;;;;18.48;100.00;99822.20;106373;1270;22544;-62
2022/08/21 01:50:36;;;;;;;8.10;3.20;;;;;;;18.45;100.00;99824.57;106405;1270;24372;-59
2022/08/21 01:53:09;;;;;;;9.30;3.70;;;;;;;18.43;100.00;99827.84;106538;1270;25191;-59
2022/08/21 01:55:41;;;;;;;10.40;4.00;;;;;;;18.41;100.00;99826.07;106662;1270;25330;-59
2022/08/21 01:58:14;;;;;;;9.90;3.60;;;;;;;18.40;100.00;99830.55;106440;1270;24028;-58
2022/08/21 02:00:46;;;;;;;9.90;3.80;;;;;;;18.39;100.00;99828.41;106723;1262;22600;-64
2022/08/21 02:03:17;;;;;;;9.10;3.70;;;;;;;18.39;100.00;99825.99;106101;1270;22610;-65
2022/08/21 02:05:49;;;;;;;9.80;3.20;;;;;;;18.39;100.00;99830.52;106838;1270;22601;-65
2022/08/21 02:08:23;;;;;;;7.90;3.20;;;;;;;18.38;100.00;99830.06;106245;1271;25544;-64
2022/08/21 02:10:57;;;;;;;8.90;3.10;;;;;;;18.39;100.00;99831.34;106150;1270;22594;-64
2022/08/21 02:13:30;;;;;;;7.40;2.60;;;;;;;18.38;100.00;99832.54;106438;1268;22557;-63
2022/08/21 02:16:01;;;;;;;4.90;1.80;;;;;;;18.38;100.00;99832.48;106087;1269;22686;-64
2022/08/21 02:18:34;;;;;;;6.70;1.70;;;;;;;18.33;100.00;99822.27;107242;1267;24234;-63
2022/08/21 02:21:06;;;;;;;8.10;2.40;;;;;;;18.30;100.00;99817.13;109815;1270;22411;-64
2022/08/21 02:23:37;;;;;;;6.80;1.80;;;;;;;18.27;100.00;99819.71;109809;1270;23279;-63
2022/08/21 02:26:10;;;;;;;6.10;2.00;;;;;;;18.22;100.00;99818.21;108948;1269;24377;-63
2022/08/21 02:28:42;;;;;;;7.90;2.40;;;;;;;18.17;100.00;99814.50;106205;1270;25171;-63
2022/08/21 02:31:16;;;;;;;6.90;2.00;;;;;;;18.13;100.00;99812.11;106159;1270;25327;-63
2022/08/21 02:33:47;;;;;;;8.20;2.50;;;;;;;18.09;100.00;99810.69;106229;1271;25432;-64
2022/08/21 02:36:19;;;;;;;7.70;1.70;;;;;;;18.04;100.00;99808.83;105932;1270;22528;-63
2022/08/21 02:38:51;;;;;;;5.50;1.70;;;;;;;18.01;100.00;99810.58;105948;1270;25349;-65
2022/08/21 02:41:25;;;;;;;4.80;1.40;;;;;;;17.97;100.00;99812.29;106082;1270;25347;-65
2022/08/21 02:43:57;;;;;;;7.30;1.80;;;;;;;17.94;100.00;99813.73;106093;1271;22550;-66
2022/08/21 02:46:31;;;;;;;6.20;1.80;;;;;;;17.91;100.00;99813.27;106058;1271;25464;-68
2022/08/21 02:49:02;;;;;;;4.00;1.30;;;;;;;17.88;100.00;99815.02;106158;1268;22535;-67
2022/08/21 02:51:34;;;;;;;5.90;1.20;;;;;;;17.84;100.00;99810.21;106157;1271;22704;-66
2022/08/21 02:54:06;;;;;;;4.80;1.30;;;;;;;17.82;100.00;99813.79;106180;1269;22639;-66
2022/08/21 02:56:37;;;;;;;4.10;1.00;;;;;;;17.79;100.00;99814.05;106177;1270;22527;-65
2022/08/21 02:59:09;;;;;;;5.40;1.00;;;;;;;17.77;100.00;99817.14;106127;1270;22548;-65
2022/08/21 03:01:40;;;;;;;3.40;0.90;;;;;;;17.77;100.00;99812.45;106115;1270;22612;-65
2022/08/21 03:04:11;;;;;;;4.90;1.00;;;;;;;17.77;100.00;99816.23;106119;1268;24231;-65
2022/08/21 03:06:43;;;;;;;3.40;1.10;;;;;;;17.76;100.00;99818.40;106240;1270;25367;-66
2022/08/21 03:09:15;;;;;;;2.60;0.90;;;;;;;17.75;100.00;99819.19;106110;1271;22560;-68
2022/08/21 03:11:47;;;;;;;4.20;1.00;;;;;;;17.75;100.00;99820.80;106074;1270;22582;-67
2022/08/21 03:14:18;;;;;;;2.80;0.90;;;;;;;17.74;100.00;99821.42;106094;1271;24405;-65
2022/08/21 03:16:50;;;;;;;2.50;0.70;;;;;;;17.74;100.00;99817.31;106190;1270;24286;-65
2022/08/21 03:19:21;;;;;;;3.00;0.80;;;;;;;17.73;100.00;99813.08;105984;1270;22617;-66
2022/08/21 03:21:53;;;;;;;2.50;0.70;;;;;;;17.73;100.00;99809.58;106028;1270;22713;-65
2022/08/21 03:24:25;;;;;;;3.90;0.70;;;;;;;17.72;100.00;99813.19;106127;1268;24160;-64
2022/08/21 03:26:56;;;;;;;3.00;0.70;;;;;;;17.71;100.00;99813.10;106233;1268;24424;-67
2022/08/21 03:29:28;;;;;;;1.50;0.50;;;;;;;17.70;100.00;99817.21;106229;1268;24356;-68
2022/08/21 03:31:59;;;;;;;2.90;0.80;;;;;;;17.69;100.00;99820.77;106126;1269;24316;-68
2022/08/21 03:34:31;;;;;;;2.60;0.70;;;;;;;17.68;100.00;99820.48;106286;1268;25578;-65
2022/08/21 03:37:03;;;;;;;3.50;1.00;;;;;;;17.67;100.00;99825.63;106099;1269;22564;-66
2022/08/21 03:39:35;;;;;;;4.40;0.90;;;;;;;17.65;100.00;99829.66;106064;1271;24297;-65
2022/08/21 03:42:07;;;;;;;2.40;0.70;;;;;;;17.65;100.00;99833.63;106053;1271;25480;-64
2022/08/21 03:44:39;;;;;;;2.60;0.80;;;;;;;17.64;100.00;99832.27;106196;1268;23239;-66
2022/08/21 03:47:11;;;;;;;3.70;0.70;;;;;;;17.62;100.00;99832.85;106334;1271;22707;-67
2022/08/21 03:49:43;;;;;;;4.00;0.80;;;;;;;17.61;100.00;99832.55;106158;1271;23706;-67
2022/08/21 03:52:15;;;;;;;3.20;1.00;;;;;;;17.61;100.00;99834.05;106100;1268;22550;-65
2022/08/21 03:54:47;;;;;;;3.20;1.00;;;;;;;17.60;100.00;99837.52;106180;1268;24382;-66
2022/08/21 03:57:21;;;;;;;4.80;1.20;;;;;;;17.59;100.00;99838.24;106076;1270;24377;-67
2022/08/21 03:59:52;;;;;;;4.10;1.30;;;;;;;17.59;100.00;99843.89;106023;1270;22704;-66
2022/08/21 04:02:25;;;;;;;5.10;1.10;;;;;;;17.60;100.00;99840.74;105982;1270;22537;-68
2022/08/21 04:04:56;;;;;;;4.90;1.20;;;;;;;17.60;100.00;99836.64;106099;1270;24328;-67
2022/08/21 04:07:27;;;;;;;4.40;1.20;;;;;;;17.60;100.00;99840.59;106048;1270;23098;-66
2022/08/21 04:09:59;;;;;;;3.80;1.00;;;;;;;17.59;100.00;99843.52;105964;1270;22616;-66
2022/08/21 04:12:31;;;;;;;5.90;1.40;;;;;;;17.58;100.00;99846.36;106120;1270;25411;-66
2022/08/21 04:15:03;;;;;;;3.10;1.00;;;;;;;17.58;100.00;99847.65;105915;1270;26570;-67
2022/08/21 04:17:35;;;;;;;3.70;1.20;;;;;;;17.59;100.00;99842.20;106056;1270;22731;-69
2022/08/21 04:20:09;;;;;;;6.60;1.20;;;;;;;17.59;100.00;99847.27;105854;1270;24227;-66
2022/08/21 04:22:41;;;;;;;3.50;1.10;;;;;;;17.59;100.00;99840.61;106282;1270;22544;-64
2022/08/21 04:25:14;;;;;;;3.40;1.00;;;;;;;17.59;100.00;99843.38;105953;1270;26131;-65
2022/08/21 04:27:46;;;;;;;5.10;1.20;;;;;;;17.60;100.00;99842.47;105838;1270;22544;-65
2022/08/21 04:30:19;;;;;;;4.70;1.10;;;;;;;17.60;100.00;99838.95;106007;1270;26298;-65
2022/08/21 04:32:52;;;;;;;3.30;1.20;;;;;;;17.60;100.00;99841.20;106073;1271;25255;-65
2022/08/21 04:35:25;;;;;;;3.30;1.10;;;;;;;17.59;100.00;99838.13;105865;1270;22786;-65
2022/08/21 04:37:57;;;;;;;2.70;0.90;;;;;;;17.58;100.00;99836.36;105680;1270;22697;-68
2022/08/21 04:40:29;;;;;;;3.90;1.10;;;;;;;17.57;100.00;99835.35;106318;1269;22480;-67
2022/08/21 04:43:06;;;;;;;3.70;1.10;;;;;;;17.56;100.00;99836.14;106141;1270;23327;-68
2022/08/21 04:45:44;;;;;;;3.50;1.00;;;;;;;17.55;100.00;99835.43;105890;1270;25264;-68
2022/08/21 04:48:19;;;;;;;3.30;1.00;;;;;;;17.53;100.00;99833.66;106020;1270;25361;-66
2022/08/21 04:50:56;;;;;;;5.20;1.10;;;;;;;17.52;100.00;99832.20;105826;1270;24425;-66
2022/08/21 04:53:34;;;;;;;3.30;1.10;;;;;;;17.50;100.00;99826.02;105963;1270;22530;-69
2022/08/21 04:56:11;;;;;;;2.80;0.90;;;;;;;17.49;100.00;99826.38;105867;1270;22690;-64
2022/08/21 04:58:43;;;;;;;4.40;1.10;;;;;;;17.49;100.00;99836.63;105895;1270;25490;-65
2022/08/21 05:01:18;;;;;;;4.10;1.10;;;;;;;17.50;100.00;99846.55;105958;1270;25259;-65
2022/08/21 05:03:51;;;;;;;4.90;1.00;;;;;;;17.52;100.00;99848.52;106085;1270;22591;-67
2022/08/21 05:06:24;;;;;;;3.70;1.10;;;;;;;17.55;100.00;99856.12;106106;1271;24310;-69
2022/08/21 05:08:59;;;;;;;4.80;1.00;;;;;;;17.56;100.00;99854.87;106582;1270;23400;-68
2022/08/21 05:11:31;;;;;;;3.30;1.00;;;;;;;17.57;100.00;99859.84;106064;1271;22613;-66
2022/08/21 05:14:02;;;;;;;3.70;1.10;;;;;;;17.56;100.00;99866.27;106086;1270;25362;-65
2022/08/21 05:16:34;;;;;;;3.70;1.00;;;;;;;17.57;100.00;99874.71;106160;1270;22525;-66
2022/08/21 05:19:07;;;;;;;2.60;0.80;;;;;;;17.57;100.00;99873.42;106368;1270;23438;-65
2022/08/21 05:21:40;;;;;;;2.60;1.00;;;;;;;17.57;100.00;99873.02;106141;1270;25333;-65
2022/08/21 05:24:12;;;;;;;4.00;0.90;;;;;;;17.58;100.00;99873.41;105942;1270;24255;-65
2022/08/21 05:26:44;;;;;;;3.00;1.00;;;;;;;17.57;100.00;99871.07;106067;1271;24423;-66
2022/08/21 05:29:17;;;;;;;4.70;0.90;;;;;;;17.56;100.00;99866.31;106040;1271;22527;-68
2022/08/21 05:31:50;;;;;;;2.80;0.80;;;;;;;17.56;100.00;99876.98;106079;1271;22616;-67
2022/08/21 05:34:24;;;;;;;2.80;0.80;;;;;;;17.55;100.00;99884.13;106164;1271;25245;-64
2022/08/21 05:36:57;;;;;;;4.70;0.90;;;;;;;17.55;100.00;99891.01;106062;1271;22542;-64
2022/08/21 05:39:29;;;;;;;3.10;1.00;;;;;;;17.55;100.00;99888.70;106060;1271;22783;-61
2022/08/21 05:42:00;;;;;;;3.30;0.80;;;;;;;17.54;100.00;99886.88;106147;1271;25646;-64
2022/08/21 05:44:32;;;;;;;5.00;0.90;;;;;;;17.52;100.00;99877.76;106182;1271;24235;-63
2022/08/21 05:47:09;;;;;;;3.90;0.80;;;;;;;17.50;100.00;99880.73;106100;1269;24248;-62
2022/08/21 05:49:41;;;;;;;6.30;1.00;;;;;;;17.50;100.00;99882.27;106157;1270;22753;-62
2022/08/21 05:52:12;;;;;;;4.00;0.80;;;;;;;17.50;100.00;99883.77;105960;1270;24206;-62
2022/08/21 05:54:44;;;;;;;2.00;0.70;;;;;;;17.50;100.00;99891.64;106062;1270;22692;-62
2022/08/21 05:57:16;;;;;;;2.40;0.70;;;;;;;17.47;100.00;99892.17;106114;1269;25324;-63
2022/08/21 05:59:48;;;;;;;2.60;0.70;;;;;;;17.46;100.00;99898.25;106144;1269;23069;-63
2022/08/21 06:02:21;;;;;;;5.00;0.80;;;;;;;17.45;100.00;99900.87;106216;1271;24333;-63
2022/08/21 06:04:53;;;;;;;4.80;0.60;;;;;;;17.44;100.00;99902.98;106189;1270;22626;-64
2022/08/21 06:07:24;;;;;;;2.70;0.70;;;;;;;17.42;100.00;99904.56;106159;1270;22849;-63
2022/08/21 06:09:56;;;;;;;1.90;0.60;;;;;;;17.40;100.00;99902.73;106057;1271;24220;-62
2022/08/21 06:12:27;;;;;;;5.30;0.70;;;;;;;17.40;100.00;99897.52;105946;1270;24436;-63
2022/08/21 06:14:59;;;;;;;2.10;0.50;;;;;;;17.38;100.00;99896.83;106944;1269;22589;-62
2022/08/21 06:17:35;;;;;;;3.40;0.60;;;;;;;17.37;100.00;99902.99;106210;1271;25259;-66
2022/08/21 06:20:09;;;;;;;2.20;0.60;;;;;;;17.35;100.00;99912.56;106411;1270;22547;-63
2022/08/21 06:22:40;;;;;;;2.50;0.60;;;;;;;17.36;100.00;99933.79;106576;1270;22549;-65
2022/08/21 06:25:12;;;;;;;2.60;0.70;;;;;;;17.36;100.00;99940.57;106031;1270;22569;-63
2022/08/21 06:27:44;;;;;;;1.90;0.60;;;;;;;17.35;100.00;99947.25;106196;1271;22547;-63
2022/08/21 06:30:16;;;;;;;3.50;0.70;;;;;;;17.36;100.00;99953.09;105939;1270;22687;-62
2022/08/21 06:32:49;;;;;;;2.70;0.70;;;;;;;17.36;100.00;99952.69;106049;1270;22692;-62
2022/08/21 06:35:21;;;;;;;2.80;0.60;;;;;;;17.36;100.00;99954.98;106148;1269;24279;-62
2022/08/21 06:37:53;;;;;;;3.00;0.80;;;;;;;17.34;100.00;99948.73;106255;1271;22529;-62
2022/08/21 06:40:25;;;;;;;2.20;0.60;;;;;;;17.33;100.00;99948.35;106181;1271;22698;-61
2022/08/21 06:42:56;;;;;;;2.80;0.60;;;;;;;17.33;100.00;99947.99;106136;1271;22547;-62
2022/08/21 06:45:28;;;;;;;3.00;0.60;;;;;;;17.31;100.00;99953.19;106076;1270;24674;-63
2022/08/21 06:48:00;;;;;;;1.90;0.60;;;;;;;17.30;100.00;99954.42;106311;1271;22681;-63
2022/08/21 06:50:32;;;;;;;2.60;0.60;;;;;;;17.29;100.00;99955.84;106202;1270;25461;-64
2022/08/21 06:53:06;;;;;;;2.60;0.40;;;;;;;17.27;100.00;99955.91;106159;1269;24265;-63
2022/08/21 06:55:39;;;;;;;1.60;0.50;;;;;;;17.26;100.00;99961.67;106207;1270;22577;-64
2022/08/21 06:58:13;;;;;;;1.80;0.50;;;;;;;17.24;100.00;99968.63;106276;1270;22785;-62
2022/08/21 07:00:47;;;;;;;2.00;0.40;;;;;;;17.21;100.00;99973.02;106221;1270;25361;-63
2022/08/21 07:03:24;;;;;;;2.70;0.80;;;;;;;17.19;100.00;99971.50;106123;1270;24030;-62
2022/08/21 07:05:58;;;;;;;2.30;0.60;;;;;;;17.17;100.00;99977.73;106154;1271;23826;-61
2022/08/21 07:08:30;;;;;;;2.50;0.60;;;;;;;17.14;100.00;99977.41;106176;1269;22618;-62
2022/08/21 07:11:04;;;;;;;4.80;0.80;;;;;;;17.10;100.00;99975.40;106187;1270;24415;-62
2022/08/21 07:13:36;;;;;;;4.90;0.90;;;;;;;17.01;100.00;99980.12;106248;1270;22591;-61
2022/08/21 07:16:09;;;;;;;5.10;0.90;;;;;;;16.90;100.00;99981.46;106170;1271;24225;-64
2022/08/21 07:18:41;;;;;;;5.60;1.50;;;;;;;16.80;100.00;99980.21;106105;1270;24430;-59
2022/08/21 07:21:13;;;;;;;5.60;1.10;;;;;;;16.69;100.00;99978.92;105988;1270;22553;-61
2022/08/21 07:23:49;;;;;;;5.40;1.30;;;;;;;16.59;100.00;99981.84;102218;1271;5482341;-62
2022/08/21 07:26:23;;;;;;;6.00;1.40;;;;;;;16.51;100.00;99985.39;106223;1271;22714;-63
2022/08/21 07:28:55;;;;;;;4.40;1.20;;;;;;;16.46;100.00;99987.88;106204;1270;25257;-63
2022/08/21 07:31:28;;;;;;;7.40;1.30;;;;;;;16.40;100.00;99984.09;106143;1270;26575;-62
2022/08/21 07:33:59;;;;;;;5.00;1.20;;;;;;;16.34;100.00;99992.64;106116;1270;24450;-62
2022/08/21 07:36:34;;;;;;;5.60;1.70;;;;;;;16.24;100.00;99997.49;105938;1270;23451;-63
2022/08/21 07:39:05;;;;;;;11.10;1.80;;;;;;;16.14;100.00;99999.66;106160;1270;25547;-62
2022/08/21 07:41:37;;;;;;;6.00;1.40;;;;;;;16.04;100.00;99998.35;106189;1270;22670;-61
2022/08/21 07:44:09;;;;;;;8.00;1.50;;;;;;;15.90;100.00;100005.49;105991;1270;23353;-63
2022/08/21 07:46:40;;;;;;;4.80;1.10;;;;;;;15.78;100.00;100014.64;106209;1270;22551;-62
2022/08/21 07:49:12;;;;;;;6.40;1.30;;;;;;;15.67;100.00;100027.85;106077;1270;23050;-62
2022/08/21 07:51:45;;;;;;;6.50;1.30;;;;;;;15.58;100.00;100029.69;106243;1271;24441;-61
2022/08/21 07:54:17;;;;;;;5.60;1.50;;;;;;;15.52;100.00;100033.08;106071;1270;22518;-62
2022/08/21 07:56:49;;;;;;;4.80;1.20;;;;;;;15.48;100.00;100031.06;109787;1270;22473;-62
2022/08/21 07:59:21;;;;;;;6.40;1.30;;;;;;;15.44;100.00;100028.71;108583;1269;22541;-62
2022/08/21 08:01:57;;;;;;;8.90;1.50;;;;;;;15.40;100.00;100022.73;106537;1261;24259;-65
2022/08/21 08:04:29;;;;;;;7.40;1.40;;;;;;;15.39;100.00;100011.98;106306;1271;25285;-64
2022/08/21 08:07:01;;;;;;;10.00;1.50;;;;;;;15.38;100.00;100015.42;105875;1270;24412;-66
2022/08/21 08:09:34;;;;;;;8.10;1.60;;;;;;;15.37;100.00;100025.25;109841;1269;22374;-62
2022/08/21 08:12:06;;;;;;;6.70;1.40;;;;;;;15.36;100.00;100028.73;107363;1270;24324;-64
2022/08/21 08:14:38;;;;;;;7.00;1.20;;;;;;;15.37;100.00;100034.10;106137;1271;22690;-62
2022/08/21 08:17:13;;;;;;;8.80;1.60;;;;;;;15.36;100.00;100037.31;106087;1270;22547;-63
2022/08/21 08:19:45;;;;;;;7.60;1.20;;;;;;;15.35;100.00;100024.94;106121;1271;22528;-60
2022/08/21 08:22:20;;;;;;;6.10;1.70;;;;;;;15.34;100.00;100017.34;106293;1270;24221;-60
2022/08/21 08:24:52;;;;;;;6.00;1.20;;;;;;;15.33;100.00;100020.90;106273;1271;23070;-62
2022/08/21 08:27:25;;;;;;;4.70;1.10;;;;;;;15.33;100.00;100018.15;106117;1271;25628;-64
2022/08/21 08:29:59;;;;;;;6.60;1.40;;;;;;;15.32;100.00;100013.55;106118;1270;22551;-63
2022/08/21 08:32:32;;;;;;;7.20;1.20;;;;;;;15.32;100.00;100012.69;106213;1270;25319;-62
2022/08/21 08:35:04;;;;;;;3.90;1.00;;;;;;;15.32;100.00;100013.14;106370;1270;25346;-63
2022/08/21 08:37:39;;;;;;;6.00;1.00;;;;;;;15.31;100.00;100007.52;106164;1270;22537;-62
2022/08/21 08:40:14;;;;;;;7.30;1.20;;;;;;;15.29;100.00;100004.09;106083;1271;25329;-62
2022/08/21 08:42:47;;;;;;;4.90;1.20;;;;;;;15.29;100.00;100012.75;106190;1271;22654;-61
2022/08/21 08:45:24;;;;;;;6.90;1.40;;;;;;;15.28;100.00;100020.42;106197;1271;22525;-62
2022/08/21 08:48:00;;;;;;;3.70;1.00;;;;;;;15.29;100.00;100020.52;106105;1271;22520;-60
2022/08/21 08:50:40;;;;;;;7.60;1.10;;;;;;;15.29;100.00;100023.14;106152;1271;24234;-60
2022/08/21 08:53:17;;;;;;;6.20;1.30;;;;;;;15.30;100.00;100029.66;106171;1271;22518;-62
2022/08/21 08:55:52;;;;;;;7.90;1.30;;;;;;;15.33;100.00;100028.84;106129;1270;22556;-62
2022/08/21 08:58:29;;;;;;;6.00;1.70;;;;;;;15.36;100.00;100030.36;106103;1271;24091;-62
2022/08/21 09:01:02;;;;;;;5.80;1.50;;;;;;;15.40;100.00;100031.52;106051;1271;24295;-61
2022/08/21 09:03:36;;;;;;;5.80;1.00;;;;;;;15.44;100.00;100034.55;105854;1270;22571;-59
2022/08/21 09:06:21;;;;;;;4.00;1.10;;;;;;;15.47;100.00;100038.88;105912;1270;22597;-56
2022/08/21 09:09:02;;;;;;;3.30;0.80;;;;;;;15.50;100.00;100040.56;105878;1270;22601;-57
2022/08/21 09:11:43;;;;;;;4.30;0.90;;;;;;;15.54;100.00;100039.27;106165;1270;23114;-58
2022/08/21 09:14:24;;;;;;;3.20;0.80;;;;;;;15.57;100.00;100044.58;105812;1270;22692;-55
2022/08/21 09:17:05;;;;;;;3.80;0.90;;;;;;;15.58;100.00;100043.55;105845;1270;22548;-57
2022/08/21 09:19:53;;;;;;;4.00;1.00;;;;;;;15.57;100.00;100049.55;105952;1270;23923;-58
2022/08/21 09:22:35;;;;;;;2.90;0.80;;;;;;;15.59;100.00;100049.16;106192;1270;25647;-56
2022/08/21 09:25:19;;;;;;;4.00;1.00;;;;;;;15.59;100.00;100047.17;106026;1270;24445;-57
2022/08/21 09:27:51;;;;;;;4.10;0.90;;;;;;;15.60;100.00;100050.54;106274;1270;25884;-58
2022/08/21 09:30:30;;;;;;;3.60;0.90;;;;;;;15.60;100.00;100048.70;106167;1271;24278;-57
2022/08/21 09:33:02;;;;;;;3.10;0.80;;;;;;;15.62;100.00;100047.05;106105;1270;25250;-55
2022/08/21 09:35:37;;;;;;;3.20;1.00;;;;;;;15.64;100.00;100052.02;105997;1270;25295;-53
2022/08/21 09:38:10;;;;;;;3.30;0.80;;;;;;;15.66;100.00;100051.61;106291;1270;24216;-57
2022/08/21 09:40:46;;;;;;;3.60;0.80;;;;;;;15.67;100.00;100049.90;105934;1270;24276;-56
2022/08/21 09:43:24;;;;;;;4.20;1.00;;;;;;;15.69;100.00;100049.95;106287;1270;22681;-55
2022/08/21 09:46:11;;;;;;;4.90;0.90;;;;;;;15.69;100.00;100053.98;105869;1270;22540;-57
2022/08/21 09:48:48;;;;;;;3.60;0.80;;;;;;;15.70;100.00;100055.73;106068;1270;22534;-55
2022/08/21 09:51:24;;;;;;;3.70;0.90;;;;;;;15.68;100.00;100050.05;106049;1270;22676;-52
2022/08/21 09:53:59;;;;;;;4.80;1.00;;;;;;;15.66;100.00;100057.80;106155;1270;26354;-54
2022/08/21 09:59:31;;;;;;;2.80;0.80;;;;;;;15.59;100.00;100057.76;105971;1270;23241;-54
2022/08/21 10:02:21;;;;;;;2.40;0.70;;;;;;;15.55;100.00;100055.23;105914;1270;22550;-56
2022/08/21 10:04:55;;;;;;;3.50;0.80;;;;;;;15.55;100.00;100051.89;105988;1270;25288;-54
2022/08/21 10:07:30;;;;;;;4.80;1.10;;;;;;;15.56;100.00;100051.74;106451;1270;22522;-54
2022/08/21 10:10:09;;;;;;;5.00;1.00;;;;;;;15.55;100.00;100048.73;105892;1270;25604;-55
2022/08/21 10:12:48;;;;;;;4.90;1.20;;;;;;;15.52;100.00;100047.26;106244;1270;24275;-53
2022/08/21 10:15:29;;;;;;;3.80;0.70;;;;;;;15.51;100.00;100049.02;106115;1270;22556;-52
2022/08/21 10:18:13;;;;;;;6.30;1.30;;;;;;;15.50;100.00;100049.77;105827;1270;22553;-52
2022/08/21 10:20:52;;;;;;;3.70;1.10;;;;;;;15.51;100.00;100056.21;106089;1271;25245;-54
2022/08/21 10:23:38;;;;;;;4.60;1.10;;;;;;;15.52;100.00;100054.22;106098;1270;28637;-54
2022/08/21 10:26:27;;;;;;;4.40;1.20;;;;;;;15.53;100.00;100053.80;106204;1270;24221;-54
2022/08/21 10:29:09;;;;;;;4.10;1.00;;;;;;;15.50;100.00;100053.92;106170;1270;26683;-54
2022/08/21 10:31:55;;;;;;;4.20;1.00;;;;;;;15.47;100.00;100059.00;106084;1270;22538;-55
2022/08/21 10:34:38;;;;;;;9.80;1.40;;;;;;;15.42;100.00;100061.29;106133;1270;25326;-54
2022/08/21 10:37:29;;;;;;;7.10;1.20;;;;;;;15.36;100.00;100055.98;106133;1270;22551;-56
2022/08/21 10:40:09;;;;;;;4.30;0.90;;;;;;;15.33;100.00;100053.48;106154;1270;23088;-54
2022/08/21 10:42:55;;;;;;;3.50;0.80;;;;;;;15.32;100.00;100049.71;105942;1270;22687;-54
2022/08/21 10:45:43;;;;;;;2.90;0.70;;;;;;;15.30;100.00;100048.89;106085;1270;22623;-54
2022/08/21 10:48:25;;;;;;;4.50;0.80;;;;;;;15.29;100.00;100052.84;106083;1271;23181;-53
2022/08/21 10:51:06;;;;;;;7.40;1.00;;;;;;;15.28;100.00;100050.64;106026;1270;22591;-55
2022/08/21 10:53:57;;;;;;;4.30;0.90;;;;;;;15.28;100.00;100050.90;105725;1270;25394;-53
2022/08/21 10:56:32;;;;;;;3.60;0.90;;;;;;;15.28;100.00;100051.05;105698;1270;22548;-54
2022/08/21 10:59:20;;;;;;;3.30;1.00;;;;;;;15.29;100.00;100051.45;106031;1270;24434;-54
2022/08/21 11:02:14;;;;;;;2.20;0.70;;;;;;;15.30;100.00;100057.52;106025;1270;22548;-52
2022/08/21 11:04:57;;;;;;;4.80;1.00;;;;;;;15.32;100.00;100061.63;106033;1270;25331;-53
2022/08/21 11:07:36;;;;;;;6.20;0.90;;;;;;;15.35;100.00;100055.12;106198;1270;25604;-53
2022/08/21 11:10:22;;;;;;;5.70;1.10;;;;;;;15.39;100.00;100063.29;106076;1270;22541;-52
2022/08/21 11:13:00;;;;;;;4.10;1.00;;;;;;;15.40;100.00;100059.85;105676;1270;22566;-54
2022/08/21 11:15:47;;;;;;;4.20;0.90;;;;;;;15.43;100.00;100062.92;106106;1271;22607;-51
2022/08/21 11:18:28;;;;;;;3.90;1.10;;;;;;;15.47;100.00;100059.35;105737;1270;24432;-51
2022/08/21 11:21:11;;;;;;;9.50;1.30;;;;;;;15.49;100.00;100062.06;105968;1270;22528;-55
2022/08/21 11:23:51;;;;;;;3.20;0.80;;;;;;;15.52;100.00;100060.52;106053;1271;25238;-52
2022/08/21 11:26:31;;;;;;;4.80;1.00;;;;;;;15.52;100.00;100061.58;106089;1270;22559;-55
2022/08/21 11:29:14;;;;;;;4.50;0.90;;;;;;;15.54;100.00;100061.57;105812;1270;22544;-54
2022/08/21 11:32:02;;;;;;;4.90;0.90;;;;;;;15.56;100.00;100057.47;105905;1270;25242;-51
2022/08/21 11:34:49;;;;;;;6.50;1.20;;;;;;;15.59;100.00;100061.75;106124;1270;22531;-50
2022/08/21 11:37:33;;;;;;;4.10;1.00;;;;;;;15.61;100.00;100061.65;105930;1270;22688;-52
2022/08/21 11:40:15;;;;;;;5.70;1.20;;;;;;;15.62;100.00;100057.30;106058;1271;23466;-52
2022/08/21 11:42:58;;;;;;;6.50;1.00;;;;;;;15.64;100.00;100056.98;105822;1270;24295;-50
2022/08/21 11:45:41;;;;;;;6.30;1.20;;;;;;;15.65;100.00;100057.63;106077;1270;24302;-52
2022/08/21 11:48:25;;;;;;;6.10;1.20;;;;;;;15.67;100.00;100055.02;106118;1270;25298;-54
2022/08/21 11:50:59;;;;;;;8.70;1.20;;;;;;;15.70;100.00;100054.60;105897;1270;25217;-52